sensor_id;sensor_type;location;lat;lon;timestamp;pressure;altitude;pressure_sealevel;temperature;humidity
16030;BME280;34770;49.272;11.070;2022-09-09T00:54:45;97413.16;;;12.35;100.00
16030;BME280;34770;49.272;11.070;2022-09-09T00:57:23;97412.31;;;12.31;100.00
16030;BME280;34770;49.272;11.070;2022-09-09T01:03:14;97362.78;;;11.97;100.00
16030;BME280;34770;49.272;11.070;2022-09-09T01:05:54;97412.72;;;12.33;100.00
16030;BME280;34770;49.272;11.070;2022-09-09T03:40:56;97393.00;;;11.95;100.00
16030;BME280;34770;49.272;11.070;2022-09-09T03:43:26;97326.28;;;11.56;100.00
16030;BME280;34770;49.272;11.070;2022-09-09T03:45:57;97382.75;;;11.99;100.00
16030;BME280;34770;49.272;11.070;2022-09-09T03:48:25;97406.28;;;12.02;100.00
16030;BME280;34770;49.272;11.070;2022-09-09T03:50:57;97397.50;;;12.00;100.00
16030;BME280;34770;49.272;11.070;2022-09-09T03:56:32;97303.19;;;11.32;100.00
16030;BME280;34770;49.272;11.070;2022-09-09T03:59:03;97308.50;;;11.41;100.00
16030;BME280;34770;49.272;11.070;2022-09-09T04:01:30;97284.50;;;11.32;100.00
16030;BME280;34770;49.272;11.070;2022-09-09T04:03:56;97391.59;;;12.05;100.00
16030;BME280;34770;49.272;11.070;2022-09-09T04:06:24;97311.00;;;11.46;100.00
16030;BME280;34770;49.272;11.070;2022-09-09T04:08:51;97292.28;;;11.46;100.00
16030;BME280;34770;49.272;11.070;2022-09-09T04:11:18;97387.50;;;11.99;100.00
16030;BME280;34770;49.272;11.070;2022-09-09T04:13:46;97290.94;;;11.37;100.00
16030;BME280;34770;49.272;11.070;2022-09-09T04:16:16;97361.34;;;11.57;100.00
16030;BME280;34770;49.272;11.070;2022-09-09T04:18:43;97384.34;;;11.77;100.00
16030;BME280;34770;49.272;11.070;2022-09-09T04:21:17;97296.00;;;11.08;100.00
16030;BME280;34770;49.272;11.070;2022-09-09T05:21:41;97367.81;;;11.64;100.00
16030;BME280;34770;49.272;11.070;2022-09-09T05:24:07;97402.63;;;11.97;100.00
16030;BME280;34770;49.272;11.070;2022-09-09T05:26:33;97327.50;;;11.58;100.00
16030;BME280;34770;49.272;11.070;2022-09-09T05:29:00;97345.41;;;11.84;100.00
16030;BME280;34770;49.272;11.070;2022-09-09T05:31:30;97320.53;;;11.72;100.00
16030;BME280;34770;49.272;11.070;2022-09-09T05:36:31;97346.97;;;11.81;100.00
16030;BME280;34770;49.272;11.070;2022-09-09T05:38:57;97332.47;;;11.95;100.00
16030;BME280;34770;49.272;11.070;2022-09-09T05:41:29;97344.75;;;12.18;100.00
16030;BME280;34770;49.272;11.070;2022-09-09T05:43:55;97339.03;;;12.07;100.00
16030;BME280;34770;49.272;11.070;2022-09-09T05:46:23;97344.75;;;12.18;100.00
16030;BME280;34770;49.272;11.070;2022-09-09T05:56:35;97422.59;;;12.84;100.00
16030;BME280;34770;49.272;11.070;2022-09-09T05:59:04;97361.47;;;12.44;100.00
16030;BME280;34770;49.272;11.070;2022-09-09T06:01:33;97333.03;;;12.35;100.00
16030;BME280;34770;49.272;11.070;2022-09-09T06:03:59;97422.44;;;13.03;100.00
16030;BME280;34770;49.272;11.070;2022-09-09T06:06:34;97341.88;;;12.41;100.00
16030;BME280;34770;49.272;11.070;2022-09-09T06:09:06;97426.38;;;12.99;100.00
16030;BME280;34770;49.272;11.070;2022-09-09T06:11:35;97409.78;;;13.13;100.00
16030;BME280;34770;49.272;11.070;2022-09-09T06:14:01;97423.09;;;13.27;100.00
16030;BME280;34770;49.272;11.070;2022-09-09T06:16:28;97420.66;;;13.22;100.00
16030;BME280;34770;49.272;11.070;2022-09-09T06:18:54;97430.97;;;13.14;100.00
16030;BME280;34770;49.272;11.070;2022-09-09T06:21:28;97425.06;;;13.23;100.00
16030;BME280;34770;49.272;11.070;2022-09-09T06:23:55;97416.25;;;13.21;100.00
16030;BME280;34770;49.272;11.070;2022-09-09T06:26:23;97401.41;;;13.13;100.00
16030;BME280;34770;49.272;11.070;2022-09-09T06:28:50;97437.38;;;13.52;100.00
16030;BME280;34770;49.272;11.070;2022-09-09T06:31:19;97433.44;;;13.57;100.00
16030;BME280;34770;49.272;11.070;2022-09-09T06:33:52;97434.41;;;13.76;100.00
16030;BME280;34770;49.272;11.070;2022-09-09T06:36:20;97433.31;;;13.87;100.00
16030;BME280;34770;49.272;11.070;2022-09-09T06:38:46;97429.41;;;13.96;100.00
16030;BME280;34770;49.272;11.070;2022-09-09T06:41:13;97428.59;;;13.99;100.00
16030;BME280;34770;49.272;11.070;2022-09-09T06:43:39;97425.94;;;14.13;100.00
16030;BME280;34770;49.272;11.070;2022-09-09T06:46:06;97427.53;;;14.14;100.00
16030;BME280;34770;49.272;11.070;2022-09-09T06:48:33;97431.22;;;14.29;100.00
16030;BME280;34770;49.272;11.070;2022-09-09T06:51:06;97414.09;;;14.34;100.00
16030;BME280;34770;49.272;11.070;2022-09-09T06:53:34;97424.22;;;14.57;100.00
16030;BME280;34770;49.272;11.070;2022-09-09T06:56:18;97421.03;;;14.55;100.00
16030;BME280;34770;49.272;11.070;2022-09-09T06:58:45;97433.88;;;14.63;100.00
16030;BME280;34770;49.272;11.070;2022-09-09T07:01:12;97440.75;;;14.73;100.00
16030;BME280;34770;49.272;11.070;2022-09-09T07:03:39;97433.53;;;14.68;100.00
16030;BME280;34770;49.272;11.070;2022-09-09T07:06:05;97438.50;;;15.08;100.00
16030;BME280;34770;49.272;11.070;2022-09-09T07:08:31;97431.34;;;15.18;100.00
16030;BME280;34770;49.272;11.070;2022-09-09T07:11:04;97445.41;;;15.32;100.00
16030;BME280;34770;49.272;11.070;2022-09-09T07:13:31;97441.41;;;15.29;100.00
16030;BME280;34770;49.272;11.070;2022-09-09T07:16:06;97445.91;;;15.63;100.00
16030;BME280;34770;49.272;11.070;2022-09-09T07:18:31;97442.78;;;15.93;100.00
16030;BME280;34770;49.272;11.070;2022-09-09T07:20:58;97453.59;;;16.17;99.33
16030;BME280;34770;49.272;11.070;2022-09-09T07:23:24;97437.94;;;16.45;98.79
16030;BME280;34770;49.272;11.070;2022-09-09T07:25:50;97443.50;;;16.77;95.99
16030;BME280;34770;49.272;11.070;2022-09-09T07:28:16;97437.84;;;16.95;96.02
16030;BME280;34770;49.272;11.070;2022-09-09T07:30:42;97437.34;;;17.22;94.45
16030;BME280;34770;49.272;11.070;2022-09-09T07:33:08;97432.78;;;17.50;94.70
16030;BME280;34770;49.272;11.070;2022-09-09T07:35:35;97427.00;;;17.75;93.66
16030;BME280;34770;49.272;11.070;2022-09-09T07:38:02;97431.13;;;17.60;91.29
16030;BME280;34770;49.272;11.070;2022-09-09T07:40:28;97439.91;;;17.69;91.59
16030;BME280;34770;49.272;11.070;2022-09-09T07:42:54;97444.56;;;17.97;89.99
16030;BME280;34770;49.272;11.070;2022-09-09T07:45:19;97445.19;;;18.20;90.10
16030;BME280;34770;49.272;11.070;2022-09-09T07:47:44;97445.03;;;18.38;86.73
16030;BME280;34770;49.272;11.070;2022-09-09T07:50:10;97446.72;;;18.73;87.58
16030;BME280;34770;49.272;11.070;2022-09-09T07:52:36;97441.38;;;18.44;83.97
16030;BME280;34770;49.272;11.070;2022-09-09T07:55:02;97446.31;;;18.75;84.28
16030;BME280;34770;49.272;11.070;2022-09-09T07:57:29;97444.72;;;19.12;82.90
16030;BME280;34770;49.272;11.070;2022-09-09T07:59:56;97451.09;;;19.51;81.54
16030;BME280;34770;49.272;11.070;2022-09-09T08:02:22;97448.22;;;19.54;81.02
16030;BME280;34770;49.272;11.070;2022-09-09T08:04:48;97457.97;;;19.77;79.74
16030;BME280;34770;49.272;11.070;2022-09-09T08:07:14;97456.19;;;19.90;78.54
16030;BME280;34770;49.272;11.070;2022-09-09T08:09:39;97449.75;;;19.59;78.30
16030;BME280;34770;49.272;11.070;2022-09-09T08:12:05;97441.22;;;19.63;78.78
16030;BME280;34770;49.272;11.070;2022-09-09T08:14:32;97446.38;;;19.99;77.39
16030;BME280;34770;49.272;11.070;2022-09-09T08:16:57;97448.38;;;20.25;76.74
16030;BME280;34770;49.272;11.070;2022-09-09T08:19:23;97469.78;;;19.68;76.16
16030;BME280;34770;49.272;11.070;2022-09-09T08:21:48;97449.25;;;20.46;76.55
16030;BME280;34770;49.272;11.070;2022-09-09T08:24:14;97442.41;;;20.91;74.15
16030;BME280;34770;49.272;11.070;2022-09-09T08:26:45;97442.59;;;21.24;69.59
16030;BME280;34770;49.272;11.070;2022-09-09T08:29:11;97449.75;;;21.29;69.74
16030;BME280;34770;49.272;11.070;2022-09-09T08:31:49;97444.00;;;21.32;67.64
16030;BME280;34770;49.272;11.070;2022-09-09T08:34:16;97453.38;;;21.09;68.74
16030;BME280;34770;49.272;11.070;2022-09-09T08:36:47;97451.41;;;21.26;67.82
16030;BME280;34770;49.272;11.070;2022-09-09T08:39:15;97456.47;;;20.75;69.30
16030;BME280;34770;49.272;11.070;2022-09-09T08:47:18;97453.28;;;21.73;66.49
16030;BME280;34770;49.272;11.070;2022-09-09T08:52:29;97466.28;;;21.50;66.50
16030;BME280;34770;49.272;11.070;2022-09-09T08:55:05;97466.97;;;21.95;63.17
16030;BME280;34770;49.272;11.070;2022-09-09T08:57:38;97454.41;;;22.12;63.18
16030;BME280;34770;49.272;11.070;2022-09-09T09:00:04;97459.53;;;22.34;61.19
16030;BME280;34770;49.272;11.070;2022-09-09T09:12:57;97456.09;;;22.59;59.82
16030;BME280;34770;49.272;11.070;2022-09-09T09:15:26;97452.97;;;23.16;59.23
16030;BME280;34770;49.272;11.070;2022-09-09T09:17:55;97450.53;;;23.02;57.48
16030;BME280;34770;49.272;11.070;2022-09-09T09:20:32;97442.19;;;22.65;58.44
16030;BME280;34770;49.272;11.070;2022-09-09T09:23:02;97446.09;;;23.30;58.67
16030;BME280;34770;49.272;11.070;2022-09-09T09:25:35;97442.69;;;22.76;54.97
16030;BME280;34770;49.272;11.070;2022-09-09T09:28:15;97443.25;;;22.55;56.29
16030;BME280;34770;49.272;11.070;2022-09-09T09:30:49;97429.91;;;22.85;54.88
16030;BME280;34770;49.272;11.070;2022-09-09T09:33:26;97436.16;;;22.63;55.91
16030;BME280;34770;49.272;11.070;2022-09-09T09:35:53;97439.91;;;22.43;54.53
16030;BME280;34770;49.272;11.070;2022-09-09T09:38:26;97437.97;;;22.40;54.81
16030;BME280;34770;49.272;11.070;2022-09-09T09:40:54;97444.28;;;21.95;55.39
16030;BME280;34770;49.272;11.070;2022-09-09T09:43:37;97445.13;;;21.18;58.57
16030;BME280;34770;49.272;11.070;2022-09-09T09:46:05;97439.28;;;21.66;57.50
16030;BME280;34770;49.272;11.070;2022-09-09T09:48:42;97435.91;;;21.71;57.08
16030;BME280;34770;49.272;11.070;2022-09-09T09:51:10;97445.59;;;21.54;58.88
16030;BME280;34770;49.272;11.070;2022-09-09T09:53:38;97437.13;;;21.90;57.34
16030;BME280;34770;49.272;11.070;2022-09-09T09:56:07;97438.72;;;21.34;58.73
16030;BME280;34770;49.272;11.070;2022-09-09T10:01:04;97443.50;;;21.38;58.70
16030;BME280;34770;49.272;11.070;2022-09-09T10:03:32;97432.47;;;21.43;57.21
16030;BME280;34770;49.272;11.070;2022-09-09T10:05:58;97448.22;;;21.04;58.75
16030;BME280;34770;49.272;11.070;2022-09-09T10:08:25;97434.16;;;21.77;57.48
16030;BME280;34770;49.272;11.070;2022-09-09T10:19:14;97406.41;;;22.55;54.02
16030;BME280;34770;49.272;11.070;2022-09-09T10:27:21;97394.56;;;23.32;52.31
16030;BME280;34770;49.272;11.070;2022-09-09T10:30:15;97397.69;;;24.15;53.36
16030;BME280;34770;49.272;11.070;2022-09-09T10:38:36;97399.09;;;24.93;48.46
16030;BME280;34770;49.272;11.070;2022-09-09T10:44:21;97400.88;;;24.17;48.26
16030;BME280;34770;49.272;11.070;2022-09-09T10:57:43;97400.34;;;21.70;53.72
16030;BME280;34770;49.272;11.070;2022-09-09T11:00:23;97404.47;;;22.02;54.27
16030;BME280;34770;49.272;11.070;2022-09-09T11:03:00;97400.38;;;21.87;55.50
16030;BME280;34770;49.272;11.070;2022-09-09T11:08:32;97400.59;;;22.75;53.05
16030;BME280;34770;49.272;11.070;2022-09-09T11:11:03;97402.19;;;22.76;52.98
16030;BME280;34770;49.272;11.070;2022-09-09T11:16:19;97396.78;;;24.18;49.50
16030;BME280;34770;49.272;11.070;2022-09-09T11:18:48;97400.19;;;23.87;49.96
16030;BME280;34770;49.272;11.070;2022-09-09T11:21:22;97399.38;;;24.25;49.48
16030;BME280;34770;49.272;11.070;2022-09-09T11:24:23;97391.09;;;24.31;49.77
16030;BME280;34770;49.272;11.070;2022-09-09T11:27:25;97383.09;;;24.38;49.55
16030;BME280;34770;49.272;11.070;2022-09-09T11:30:06;97395.59;;;25.65;48.69
16030;BME280;34770;49.272;11.070;2022-09-09T11:38:44;97372.88;;;24.63;48.28
16030;BME280;34770;49.272;11.070;2022-09-09T11:41:12;97375.28;;;23.78;49.75
16030;BME280;34770;49.272;11.070;2022-09-09T11:43:42;97391.22;;;23.76;50.88
16030;BME280;34770;49.272;11.070;2022-09-09T11:46:10;97395.84;;;23.44;50.71
16030;BME280;34770;49.272;11.070;2022-09-09T11:48:40;97383.88;;;22.93;50.78
16030;BME280;34770;49.272;11.070;2022-09-09T11:51:28;97372.19;;;22.91;51.75
16030;BME280;34770;49.272;11.070;2022-09-09T11:53:55;97376.44;;;23.13;51.34
16030;BME280;34770;49.272;11.070;2022-09-09T11:56:34;97380.94;;;22.97;52.25
16030;BME280;34770;49.272;11.070;2022-09-09T12:02:02;97363.78;;;22.58;54.47
16030;BME280;34770;49.272;11.070;2022-09-09T12:04:32;97365.94;;;22.21;56.03
16030;BME280;34770;49.272;11.070;2022-09-09T12:07:01;97346.19;;;21.84;56.89
16030;BME280;34770;49.272;11.070;2022-09-09T12:09:46;97368.09;;;22.01;57.87
16030;BME280;34770;49.272;11.070;2022-09-09T12:19:41;97382.69;;;21.99;56.72
16030;BME280;34770;49.272;11.070;2022-09-09T12:22:33;97371.69;;;21.84;56.27
16030;BME280;34770;49.272;11.070;2022-09-09T12:25:14;97365.47;;;21.57;56.64
16030;BME280;34770;49.272;11.070;2022-09-09T12:27:58;97365.88;;;21.55;56.54
16030;BME280;34770;49.272;11.070;2022-09-09T12:30:36;97378.44;;;21.54;57.08
16030;BME280;34770;49.272;11.070;2022-09-09T12:33:13;97375.56;;;21.58;60.36
16030;BME280;34770;49.272;11.070;2022-09-09T12:35:43;97373.44;;;21.05;63.59
16030;BME280;34770;49.272;11.070;2022-09-09T12:38:15;97396.44;;;20.43;70.54
16030;BME280;34770;49.272;11.070;2022-09-09T12:40:54;97399.59;;;19.70;66.81
16030;BME280;34770;49.272;11.070;2022-09-09T12:43:22;97407.31;;;19.39;87.62
16030;BME280;34770;49.272;11.070;2022-09-09T12:45:49;97390.72;;;18.75;100.00
16030;BME280;34770;49.272;11.070;2022-09-09T12:48:22;97371.47;;;18.70;100.00
16030;BME280;34770;49.272;11.070;2022-09-09T12:50:52;97367.47;;;18.26;100.00
16030;BME280;34770;49.272;11.070;2022-09-09T12:53:24;97378.56;;;18.02;100.00
16030;BME280;34770;49.272;11.070;2022-09-09T12:55:57;97373.06;;;17.84;100.00
16030;BME280;34770;49.272;11.070;2022-09-09T12:58:24;97371.72;;;18.83;100.00
16030;BME280;34770;49.272;11.070;2022-09-09T13:00:55;97356.56;;;19.90;100.00
16030;BME280;34770;49.272;11.070;2022-09-09T13:03:24;97321.88;;;20.97;96.79
16030;BME280;34770;49.272;11.070;2022-09-09T13:05:50;97352.75;;;21.08;89.29
16030;BME280;34770;49.272;11.070;2022-09-09T13:08:17;97353.41;;;21.52;98.11
16030;BME280;34770;49.272;11.070;2022-09-09T13:10:57;97345.25;;;21.38;100.00
16030;BME280;34770;49.272;11.070;2022-09-09T13:16:00;97338.50;;;22.18;96.26
16030;BME280;34770;49.272;11.070;2022-09-09T13:18:31;97338.50;;;22.02;84.13
16030;BME280;34770;49.272;11.070;2022-09-09T13:20:58;97336.06;;;22.50;95.00
16030;BME280;34770;49.272;11.070;2022-09-09T13:23:33;97336.25;;;23.01;95.40
16030;BME280;34770;49.272;11.070;2022-09-09T13:26:21;97334.03;;;23.86;96.16
16030;BME280;34770;49.272;11.070;2022-09-09T13:28:47;97325.59;;;24.57;91.38
16030;BME280;34770;49.272;11.070;2022-09-09T13:31:28;97321.19;;;23.69;90.57
16030;BME280;34770;49.272;11.070;2022-09-09T13:33:54;97319.41;;;22.35;87.99
16030;BME280;34770;49.272;11.070;2022-09-09T13:36:30;97329.66;;;21.66;85.07
16030;BME280;34770;49.272;11.070;2022-09-09T13:38:58;97308.31;;;20.48;83.20
16030;BME280;34770;49.272;11.070;2022-09-09T13:41:36;97340.22;;;20.25;89.39
16030;BME280;34770;49.272;11.070;2022-09-09T13:44:02;97327.53;;;20.13;92.62
16030;BME280;34770;49.272;11.070;2022-09-09T13:46:41;97355.66;;;19.69;89.34
16030;BME280;34770;49.272;11.070;2022-09-09T13:54:05;97361.88;;;20.55;95.79
16030;BME280;34770;49.272;11.070;2022-09-09T13:56:35;97365.75;;;21.42;100.00
16030;BME280;34770;49.272;11.070;2022-09-09T13:59:04;97363.91;;;21.35;95.50
16030;BME280;34770;49.272;11.070;2022-09-09T14:01:29;97349.22;;;21.41;100.00
16030;BME280;34770;49.272;11.070;2022-09-09T14:03:55;97342.41;;;21.58;100.00
16030;BME280;34770;49.272;11.070;2022-09-09T14:06:21;97350.19;;;21.34;100.00
16030;BME280;34770;49.272;11.070;2022-09-09T14:08:48;97343.31;;;20.54;99.87
16030;BME280;34770;49.272;11.070;2022-09-09T14:11:15;97344.59;;;20.50;100.00
16030;BME280;34770;49.272;11.070;2022-09-09T14:13:40;97350.69;;;20.48;100.00
16030;BME280;34770;49.272;11.070;2022-09-09T14:16:06;97316.34;;;20.06;100.00
16030;BME280;34770;49.272;11.070;2022-09-09T14:18:31;97342.22;;;20.04;100.00
16030;BME280;34770;49.272;11.070;2022-09-09T14:20:57;97332.16;;;19.76;100.00
16030;BME280;34770;49.272;11.070;2022-09-09T14:23:24;97353.03;;;19.82;100.00
16030;BME280;34770;49.272;11.070;2022-09-09T14:25:50;97357.72;;;19.92;100.00
16030;BME280;34770;49.272;11.070;2022-09-09T14:28:15;97362.34;;;19.79;100.00
16030;BME280;34770;49.272;11.070;2022-09-09T14:30:42;97367.28;;;19.48;100.00
16030;BME280;34770;49.272;11.070;2022-09-09T14:33:11;97377.38;;;19.45;100.00
16030;BME280;34770;49.272;11.070;2022-09-09T14:35:37;97370.53;;;19.46;100.00
16030;BME280;34770;49.272;11.070;2022-09-09T14:38:04;97376.78;;;19.30;100.00
16030;BME280;34770;49.272;11.070;2022-09-09T14:40:30;97387.91;;;19.41;100.00
16030;BME280;34770;49.272;11.070;2022-09-09T14:42:55;97383.38;;;19.51;100.00
16030;BME280;34770;49.272;11.070;2022-09-09T14:45:22;97374.94;;;20.02;100.00
16030;BME280;34770;49.272;11.070;2022-09-09T14:47:50;97395.66;;;19.91;100.00
16030;BME280;34770;49.272;11.070;2022-09-09T14:50:17;97384.09;;;21.91;98.58
16030;BME280;34770;49.272;11.070;2022-09-09T14:52:43;97386.06;;;23.02;87.82
16030;BME280;34770;49.272;11.070;2022-09-09T14:55:08;97386.53;;;23.56;73.33
16030;BME280;34770;49.272;11.070;2022-09-09T14:57:33;97375.66;;;23.93;73.92
16030;BME280;34770;49.272;11.070;2022-09-09T15:00:02;97375.75;;;23.08;71.49
16030;BME280;34770;49.272;11.070;2022-09-09T15:02:27;97379.72;;;23.79;70.12
16030;BME280;34770;49.272;11.070;2022-09-09T15:04:55;97376.66;;;24.60;65.16
16030;BME280;34770;49.272;11.070;2022-09-09T15:07:22;97357.09;;;25.92;69.78
16030;BME280;34770;49.272;11.070;2022-09-09T15:09:48;97361.78;;;26.17;65.63
16030;BME280;34770;49.272;11.070;2022-09-09T15:12:14;97354.25;;;26.70;68.58
16030;BME280;34770;49.272;11.070;2022-09-09T15:14:40;97356.28;;;27.77;60.21
16030;BME280;34770;49.272;11.070;2022-09-09T15:17:05;97341.22;;;27.06;53.89
16030;BME280;34770;49.272;11.070;2022-09-09T15:19:31;97310.66;;;26.60;65.58
16030;BME280;34770;49.272;11.070;2022-09-09T15:21:57;97336.97;;;27.63;61.25
16030;BME280;34770;49.272;11.070;2022-09-09T15:24:23;97314.22;;;27.26;54.87
16030;BME280;34770;49.272;11.070;2022-09-09T15:26:48;97320.09;;;28.32;59.45
16030;BME280;34770;49.272;11.070;2022-09-09T15:29:14;97303.88;;;28.77;57.77
16030;BME280;34770;49.272;11.070;2022-09-09T15:31:40;97318.28;;;28.20;55.32
16030;BME280;34770;49.272;11.070;2022-09-09T15:34:07;97308.53;;;28.02;54.60
16030;BME280;34770;49.272;11.070;2022-09-09T15:36:37;97309.94;;;27.73;55.84
16030;BME280;34770;49.272;11.070;2022-09-09T15:39:05;97303.19;;;27.52;43.25
16030;BME280;34770;49.272;11.070;2022-09-09T15:41:31;97303.50;;;26.92;46.58
16030;BME280;34770;49.272;11.070;2022-09-09T15:43:57;97305.03;;;27.21;52.58
16030;BME280;34770;49.272;11.070;2022-09-09T15:46:29;97302.22;;;27.03;52.21
16030;BME280;34770;49.272;11.070;2022-09-09T15:48:57;97315.56;;;26.78;55.17
16030;BME280;34770;49.272;11.070;2022-09-09T15:51:23;97307.69;;;27.34;46.31
16030;BME280;34770;49.272;11.070;2022-09-09T15:53:54;97319.69;;;26.68;45.56
16030;BME280;34770;49.272;11.070;2022-09-09T15:56:21;97309.38;;;27.60;47.25
16030;BME280;34770;49.272;11.070;2022-09-09T15:58:46;97339.16;;;25.82;46.13
16030;BME280;34770;49.272;11.070;2022-09-09T16:01:11;97318.22;;;25.67;47.96
16030;BME280;34770;49.272;11.070;2022-09-09T16:03:42;97323.22;;;24.99;55.28
16030;BME280;34770;49.272;11.070;2022-09-09T16:06:08;97352.22;;;22.66;58.37
16030;BME280;34770;49.272;11.070;2022-09-09T16:08:36;97347.63;;;21.76;59.24
16030;BME280;34770;49.272;11.070;2022-09-09T16:11:10;97344.78;;;21.23;68.72
16030;BME280;34770;49.272;11.070;2022-09-09T16:13:38;97361.06;;;19.87;76.58
16030;BME280;34770;49.272;11.070;2022-09-09T16:16:08;97374.38;;;19.83;84.32
16030;BME280;34770;49.272;11.070;2022-09-09T16:18:46;97375.34;;;19.45;83.80
16030;BME280;34770;49.272;11.070;2022-09-09T16:21:15;97385.66;;;19.28;89.44
16030;BME280;34770;49.272;11.070;2022-09-09T16:23:41;97380.13;;;19.21;89.42
16030;BME280;34770;49.272;11.070;2022-09-09T16:26:11;97386.72;;;18.73;84.58
16030;BME280;34770;49.272;11.070;2022-09-09T16:28:37;97381.00;;;18.80;71.20
16030;BME280;34770;49.272;11.070;2022-09-09T16:31:06;97352.91;;;18.73;80.16
16030;BME280;34770;49.272;11.070;2022-09-09T16:33:31;97388.34;;;18.74;72.15
16030;BME280;34770;49.272;11.070;2022-09-09T16:35:56;97391.19;;;18.70;70.21
16030;BME280;34770;49.272;11.070;2022-09-09T16:38:22;97403.00;;;18.58;86.88
16030;BME280;34770;49.272;11.070;2022-09-09T16:40:47;97386.03;;;18.23;92.24
16030;BME280;34770;49.272;11.070;2022-09-09T16:43:15;97391.78;;;18.09;97.37
16030;BME280;34770;49.272;11.070;2022-09-09T16:45:42;97404.38;;;17.93;99.29
16030;BME280;34770;49.272;11.070;2022-09-09T16:48:07;97403.34;;;17.65;100.00
16030;BME280;34770;49.272;11.070;2022-09-09T16:50:33;97392.56;;;17.53;100.00
16030;BME280;34770;49.272;11.070;2022-09-09T16:52:58;97389.28;;;17.65;100.00
16030;BME280;34770;49.272;11.070;2022-09-09T16:55:24;97403.13;;;17.38;97.53
16030;BME280;34770;49.272;11.070;2022-09-09T16:57:51;97397.50;;;17.38;100.00
16030;BME280;34770;49.272;11.070;2022-09-09T17:00:16;97391.19;;;17.16;99.44
16030;BME280;34770;49.272;11.070;2022-09-09T17:02:43;97400.03;;;17.18;92.61
16030;BME280;34770;49.272;11.070;2022-09-09T17:05:08;97404.81;;;17.21;98.35
16030;BME280;34770;49.272;11.070;2022-09-09T17:07:34;97403.72;;;16.89;100.00
16030;BME280;34770;49.272;11.070;2022-09-09T17:10:01;97402.97;;;16.71;100.00
16030;BME280;34770;49.272;11.070;2022-09-09T17:12:26;97407.38;;;16.79;100.00
16030;BME280;34770;49.272;11.070;2022-09-09T17:14:51;97402.16;;;16.70;100.00
16030;BME280;34770;49.272;11.070;2022-09-09T17:17:17;97411.03;;;16.54;100.00
16030;BME280;34770;49.272;11.070;2022-09-09T17:19:42;97407.06;;;16.34;100.00
16030;BME280;34770;49.272;11.070;2022-09-09T17:22:08;97405.03;;;16.41;100.00
16030;BME280;34770;49.272;11.070;2022-09-09T17:24:33;97382.63;;;16.09;100.00
16030;BME280;34770;49.272;11.070;2022-09-09T17:26:59;97407.47;;;16.32;100.00
16030;BME280;34770;49.272;11.070;2022-09-09T17:29:25;97424.31;;;16.47;100.00
16030;BME280;34770;49.272;11.070;2022-09-09T17:31:51;97418.69;;;16.47;100.00
16030;BME280;34770;49.272;11.070;2022-09-09T17:34:16;97406.63;;;16.39;100.00
16030;BME280;34770;49.272;11.070;2022-09-09T17:36:41;97430.34;;;16.38;100.00
16030;BME280;34770;49.272;11.070;2022-09-09T17:39:07;97423.91;;;16.26;100.00
16030;BME280;34770;49.272;11.070;2022-09-09T17:41:35;97433.53;;;16.25;100.00
16030;BME280;34770;49.272;11.070;2022-09-09T17:44:01;97402.66;;;16.07;100.00
16030;BME280;34770;49.272;11.070;2022-09-09T17:46:31;97408.28;;;16.07;100.00
16030;BME280;34770;49.272;11.070;2022-09-09T17:49:00;97420.31;;;15.97;100.00
16030;BME280;34770;49.272;11.070;2022-09-09T17:51:28;97419.91;;;15.95;100.00
16030;BME280;34770;49.272;11.070;2022-09-09T17:53:57;97427.13;;;15.92;100.00
16030;BME280;34770;49.272;11.070;2022-09-09T17:56:25;97409.06;;;15.79;100.00
16030;BME280;34770;49.272;11.070;2022-09-09T17:58:53;97417.03;;;15.66;100.00
16030;BME280;34770;49.272;11.070;2022-09-09T18:01:21;97432.25;;;15.61;100.00
16030;BME280;34770;49.272;11.070;2022-09-09T18:03:48;97438.69;;;15.66;100.00
16030;BME280;34770;49.272;11.070;2022-09-09T18:06:17;97447.44;;;15.39;100.00
16030;BME280;34770;49.272;11.070;2022-09-09T18:08:51;97446.63;;;15.42;100.00
16030;BME280;34770;49.272;11.070;2022-09-09T18:11:18;97449.03;;;15.29;100.00
16030;BME280;34770;49.272;11.070;2022-09-09T18:13:53;97449.78;;;15.22;100.00
16030;BME280;34770;49.272;11.070;2022-09-09T18:16:19;97450.22;;;15.31;100.00
16030;BME280;34770;49.272;11.070;2022-09-09T18:18:45;97451.00;;;15.25;100.00
16030;BME280;34770;49.272;11.070;2022-09-09T18:21:12;97460.53;;;15.13;100.00
16030;BME280;34770;49.272;11.070;2022-09-09T18:23:39;97502.47;;;14.88;100.00
16030;BME280;34770;49.272;11.070;2022-09-09T18:26:13;97512.75;;;15.43;84.00
16030;BME280;34770;49.272;11.070;2022-09-09T18:28:41;97518.38;;;15.46;91.30
16030;BME280;34770;49.272;11.070;2022-09-09T18:31:12;97493.69;;;14.93;100.00
16030;BME280;34770;49.272;11.070;2022-09-09T18:33:39;97521.97;;;14.70;100.00
16030;BME280;34770;49.272;11.070;2022-09-09T18:36:12;97508.25;;;14.12;100.00
16030;BME280;34770;49.272;11.070;2022-09-09T18:38:41;97495.78;;;14.02;100.00
16030;BME280;34770;49.272;11.070;2022-09-09T18:41:17;97500.75;;;14.20;100.00
16030;BME280;34770;49.272;11.070;2022-09-09T18:43:44;97492.97;;;13.99;100.00
16030;BME280;34770;49.272;11.070;2022-09-09T18:46:10;97482.31;;;14.15;100.00
16030;BME280;34770;49.272;11.070;2022-09-09T18:48:36;97486.38;;;14.22;100.00
16030;BME280;34770;49.272;11.070;2022-09-09T18:51:06;97507.22;;;14.28;100.00
16030;BME280;34770;49.272;11.070;2022-09-09T18:53:33;97509.25;;;14.31;100.00
16030;BME280;34770;49.272;11.070;2022-09-09T18:56:01;97518.34;;;14.20;100.00
16030;BME280;34770;49.272;11.070;2022-09-09T18:58:28;97519.47;;;14.12;100.00
16030;BME280;34770;49.272;11.070;2022-09-09T19:00:53;97529.00;;;14.04;100.00